createdAt,value
2022-08-31T00:02:43.845Z,9.75
2022-08-31T00:05:11.014Z,9.68
2022-08-31T00:07:38.026Z,9.74
2022-08-31T00:10:14.704Z,9.68
2022-08-31T00:12:43.247Z,9.68
2022-08-31T00:15:12.981Z,9.67
2022-08-31T00:17:40.420Z,9.63
2022-08-31T00:20:09.511Z,9.56
2022-08-31T00:22:57.005Z,9.55
2022-08-31T00:25:24.481Z,9.53
2022-08-31T00:27:51.105Z,9.50
2022-08-31T00:30:17.823Z,9.50
2022-08-31T00:32:44.457Z,9.46
2022-08-31T00:35:11.299Z,9.44
2022-08-31T00:37:37.995Z,9.45
2022-08-31T00:40:05.551Z,9.36
2022-08-31T00:42:34.115Z,9.35
2022-08-31T00:45:00.824Z,9.31
2022-08-31T00:47:27.431Z,9.33
2022-08-31T00:49:54.181Z,9.29
2022-08-31T00:52:33.385Z,9.28
2022-08-31T00:55:16.890Z,9.25
2022-08-31T00:57:46.216Z,9.31
2022-08-31T01:00:17.716Z,9.41
2022-08-31T01:02:44.699Z,9.39
2022-08-31T01:05:12.285Z,9.37
2022-08-31T01:07:39.772Z,9.33
2022-08-31T01:10:07.237Z,9.33
2022-08-31T01:12:33.937Z,9.34
2022-08-31T01:15:03.718Z,9.38
2022-08-31T01:17:33.439Z,9.37
2022-08-31T01:20:08.336Z,9.29
2022-08-31T01:23:02.332Z,9.22
2022-08-31T01:25:33.596Z,9.16
2022-08-31T01:28:02.559Z,9.17
2022-08-31T01:30:29.183Z,9.18
2022-08-31T01:32:55.853Z,9.17
2022-08-31T01:35:22.544Z,9.18
2022-08-31T01:37:49.505Z,9.16
2022-08-31T01:40:17.220Z,9.16
2022-08-31T01:42:43.936Z,9.15
2022-08-31T01:45:11.571Z,9.01
2022-08-31T01:47:39.667Z,9.03
2022-08-31T01:50:07.409Z,9.00
2022-08-31T01:52:36.603Z,8.97
2022-08-31T01:55:06.082Z,9.00
2022-08-31T01:57:33.302Z,9.05
2022-08-31T02:00:04.654Z,8.94
2022-08-31T02:02:31.923Z,8.98
2022-08-31T02:04:59.118Z,8.94
2022-08-31T02:07:25.922Z,8.96
2022-08-31T02:09:54.143Z,8.98
2022-08-31T02:12:20.819Z,8.94
2022-08-31T02:14:47.463Z,8.93
2022-08-31T02:17:14.136Z,8.94
2022-08-31T02:19:40.774Z,8.92
2022-08-31T02:22:07.703Z,8.87
2022-08-31T02:24:34.410Z,8.85
2022-08-31T02:27:01.056Z,8.82
2022-08-31T02:29:27.682Z,8.76
2022-08-31T02:31:54.366Z,8.73
2022-08-31T02:34:20.995Z,8.66
2022-08-31T02:36:47.656Z,8.67
2022-08-31T02:39:14.912Z,8.63
2022-08-31T02:41:47.563Z,8.57
2022-08-31T02:44:14.515Z,8.56
2022-08-31T02:46:41.405Z,8.58
2022-08-31T02:49:08.138Z,8.58
2022-08-31T02:51:34.803Z,8.55
2022-08-31T02:54:01.452Z,8.54
2022-08-31T02:56:28.180Z,8.53
2022-08-31T02:58:55.180Z,8.51
2022-08-31T03:01:23.621Z,8.45
2022-08-31T03:03:50.489Z,8.51
2022-08-31T03:06:18.479Z,8.40
2022-08-31T03:08:45.708Z,8.34
2022-08-31T03:11:13.258Z,8.45
2022-08-31T03:13:40.278Z,8.41
2022-08-31T03:16:07.658Z,8.38
2022-08-31T03:18:34.687Z,8.38
2022-08-31T03:21:02.494Z,8.31
2022-08-31T03:23:32.523Z,8.24
2022-08-31T03:26:00.207Z,8.29
2022-08-31T03:28:26.850Z,8.31
2022-08-31T03:30:53.902Z,8.30
2022-08-31T03:33:20.791Z,8.27
2022-08-31T03:35:47.527Z,8.17
2022-08-31T03:38:15.982Z,8.26
2022-08-31T03:40:44.187Z,8.26
2022-08-31T03:43:11.959Z,8.23
2022-08-31T03:45:40.827Z,8.16
2022-08-31T03:48:12.194Z,8.08
2022-08-31T03:50:40.445Z,8.06
2022-08-31T03:53:07.921Z,8.06
2022-08-31T03:55:36.976Z,8.01
2022-08-31T03:58:04.711Z,7.99
2022-08-31T04:00:33.714Z,8.01
2022-08-31T04:03:01.462Z,7.95
2022-08-31T04:05:33.710Z,7.92
2022-08-31T04:08:00.547Z,7.89
2022-08-31T04:10:27.189Z,7.92
2022-08-31T04:12:53.963Z,7.86
2022-08-31T04:15:22.397Z,7.87
2022-08-31T04:17:49.119Z,7.93
2022-08-31T04:20:18.991Z,8.02
2022-08-31T04:22:56.090Z,8.04
2022-08-31T04:25:22.712Z,7.94
2022-08-31T04:27:50.313Z,7.99
2022-08-31T04:30:17.893Z,7.95
2022-08-31T04:32:44.591Z,7.96
2022-08-31T04:35:11.334Z,7.91
2022-08-31T04:37:39.812Z,7.94
2022-08-31T04:40:19.009Z,8.02
2022-08-31T04:42:49.464Z,8.00
2022-08-31T04:45:16.955Z,8.06
2022-08-31T04:47:43.954Z,8.05
2022-08-31T04:50:12.481Z,8.08
2022-08-31T04:52:39.287Z,8.03
2022-08-31T04:55:07.383Z,7.95
2022-08-31T04:57:35.676Z,8.03
2022-08-31T05:00:04.475Z,7.99
2022-08-31T05:02:33.290Z,7.94
2022-08-31T05:05:00.858Z,7.90
2022-08-31T05:07:27.846Z,7.92
2022-08-31T05:09:54.474Z,7.96
2022-08-31T05:12:21.191Z,8.05
2022-08-31T05:14:47.891Z,8.07
2022-08-31T05:17:16.023Z,8.09
2022-08-31T05:19:43.302Z,8.13
2022-08-31T05:22:10.319Z,8.08
2022-08-31T05:24:38.893Z,8.09
2022-08-31T05:27:05.936Z,8.21
2022-08-31T05:29:32.585Z,8.33
2022-08-31T05:31:59.238Z,8.38
2022-08-31T05:34:26.776Z,8.41
2022-08-31T05:36:55.424Z,8.40
2022-08-31T05:39:22.773Z,8.39
2022-08-31T05:41:49.793Z,8.42
2022-08-31T05:44:17.525Z,8.53
2022-08-31T05:46:44.438Z,8.55
2022-08-31T05:49:11.674Z,8.61
2022-08-31T05:51:39.271Z,8.66
2022-08-31T05:54:10.693Z,8.69
2022-08-31T05:56:40.437Z,8.70
2022-08-31T05:59:07.547Z,8.82
2022-08-31T06:01:38.206Z,8.92
2022-08-31T06:04:06.011Z,8.93
2022-08-31T06:06:33.181Z,9.01
2022-08-31T06:09:00.807Z,8.99
2022-08-31T06:11:29.592Z,9.05
2022-08-31T06:13:58.237Z,9.44
2022-08-31T06:16:26.327Z,10.02
2022-08-31T06:18:55.615Z,10.22
2022-08-31T06:21:24.077Z,10.32
2022-08-31T06:23:52.328Z,10.48
2022-08-31T06:26:21.203Z,11.28
2022-08-31T06:28:53.195Z,12.97
2022-08-31T06:31:26.771Z,14.69
2022-08-31T06:33:55.080Z,16.09
2022-08-31T06:36:24.693Z,17.40
2022-08-31T06:39:01.503Z,18.40
2022-08-31T06:41:36.243Z,19.31
2022-08-31T06:44:08.621Z,19.49
2022-08-31T06:46:36.989Z,20.25
2022-08-31T06:49:04.308Z,20.72
2022-08-31T06:51:36.492Z,20.48
2022-08-31T06:54:28.086Z,20.82
2022-08-31T06:56:54.422Z,20.76
2022-08-31T06:59:23.395Z,20.77
2022-08-31T07:01:53.257Z,20.95
2022-08-31T07:04:20.003Z,20.28
2022-08-31T07:06:46.644Z,20.25
2022-08-31T07:09:17.714Z,19.97
2022-08-31T07:11:46.923Z,20.20
2022-08-31T07:14:19.448Z,20.32
2022-08-31T07:16:46.581Z,20.45
2022-08-31T07:19:14.687Z,20.26
2022-08-31T07:21:44.508Z,20.17
2022-08-31T07:24:12.905Z,20.21
2022-08-31T07:26:43.264Z,20.08
2022-08-31T07:29:11.231Z,20.00
2022-08-31T07:31:46.467Z,20.11
2022-08-31T07:34:20.035Z,19.94
2022-08-31T07:37:06.281Z,19.67
2022-08-31T07:39:52.121Z,19.83
2022-08-31T07:42:29.846Z,19.31
2022-08-31T07:44:58.474Z,19.12
2022-08-31T07:47:29.088Z,19.21
2022-08-31T07:49:58.484Z,19.25
2022-08-31T07:52:28.722Z,19.16
2022-08-31T07:54:59.977Z,19.02
2022-08-31T07:57:30.082Z,18.94
2022-08-31T08:00:01.224Z,18.64
2022-08-31T08:02:29.072Z,18.56
2022-08-31T08:04:55.978Z,18.37
2022-08-31T08:07:22.957Z,18.43
2022-08-31T08:09:49.652Z,18.24
2022-08-31T08:12:16.595Z,18.44
2022-08-31T08:14:43.369Z,18.17
2022-08-31T08:17:10.184Z,18.43
2022-08-31T08:19:36.914Z,18.48
2022-08-31T08:22:03.931Z,18.62
2022-08-31T08:24:31.693Z,18.67
2022-08-31T08:26:59.243Z,18.76
2022-08-31T08:29:28.803Z,18.92
2022-08-31T08:32:01.041Z,18.91
2022-08-31T08:34:32.544Z,18.86
2022-08-31T08:37:00.328Z,18.96
2022-08-31T08:39:27.419Z,18.92
2022-08-31T08:41:56.992Z,18.96
2022-08-31T08:44:28.156Z,19.13
2022-08-31T08:46:57.258Z,19.21
2022-08-31T08:49:43.886Z,19.19
2022-08-31T08:52:15.253Z,19.12
2022-08-31T08:54:45.842Z,19.04
2022-08-31T08:57:23.010Z,19.23
2022-08-31T08:59:57.463Z,19.51
2022-08-31T09:02:31.611Z,19.62
2022-08-31T09:05:11.006Z,19.59
2022-08-31T09:07:51.020Z,20.06
2022-08-31T09:10:31.253Z,20.25
2022-08-31T09:13:09.773Z,19.74
2022-08-31T09:16:10.526Z,20.29
2022-08-31T09:18:45.812Z,20.35
2022-08-31T09:21:32.750Z,20.06
2022-08-31T09:24:11.699Z,19.88
2022-08-31T09:27:19.438Z,19.83
2022-08-31T09:29:58.439Z,20.09
2022-08-31T09:32:31.560Z,20.18
2022-08-31T09:35:09.155Z,20.28
2022-08-31T09:37:46.223Z,20.21
2022-08-31T09:40:23.670Z,20.51
2022-08-31T09:43:25.353Z,20.94
2022-08-31T09:46:04.962Z,21.18
2022-08-31T09:48:56.270Z,21.51
2022-08-31T09:51:28.296Z,21.48
2022-08-31T09:54:18.631Z,21.17
2022-08-31T09:56:56.727Z,21.07
2022-08-31T09:59:44.465Z,21.33
2022-08-31T10:02:26.158Z,21.59
2022-08-31T10:05:01.410Z,21.71
2022-08-31T10:07:43.300Z,22.02
2022-08-31T10:10:30.122Z,22.17
2022-08-31T10:13:06.236Z,21.42
2022-08-31T10:15:39.526Z,21.89
2022-08-31T10:18:30.039Z,21.95
2022-08-31T10:21:06.070Z,22.00
2022-08-31T10:23:54.127Z,21.82
2022-08-31T10:26:31.651Z,21.18
2022-08-31T10:29:01.396Z,21.30
2022-08-31T10:31:36.852Z,21.19
2022-08-31T10:34:31.903Z,21.13
2022-08-31T10:37:09.222Z,21.45
2022-08-31T10:39:58.275Z,21.76
2022-08-31T10:42:29.967Z,22.09
2022-08-31T10:45:04.269Z,22.23
2022-08-31T10:47:34.249Z,22.19
2022-08-31T10:50:03.379Z,22.37
2022-08-31T10:52:34.522Z,22.68
2022-08-31T10:55:16.328Z,23.19
2022-08-31T10:57:54.798Z,23.38
2022-08-31T11:00:42.084Z,22.90
2022-08-31T11:03:22.548Z,23.22
2022-08-31T11:06:17.202Z,22.48
2022-08-31T11:08:57.450Z,22.18
2022-08-31T11:11:43.769Z,21.72
2022-08-31T11:14:48.422Z,21.77
2022-08-31T11:17:29.932Z,21.43
2022-08-31T11:20:24.346Z,21.32
2022-08-31T11:23:17.579Z,21.07
2022-08-31T11:25:56.627Z,20.96
2022-08-31T11:28:48.969Z,21.02
2022-08-31T11:31:25.502Z,20.50
2022-08-31T11:34:15.105Z,20.75
2022-08-31T11:36:52.176Z,20.62
2022-08-31T11:39:46.138Z,20.52
2022-08-31T11:42:18.786Z,20.38
2022-08-31T11:44:48.887Z,20.31
2022-08-31T11:47:27.763Z,20.49
2022-08-31T11:50:05.421Z,20.85
2022-08-31T11:52:43.241Z,21.34
2022-08-31T11:55:48.658Z,21.77
2022-08-31T11:58:22.226Z,21.39
2022-08-31T12:01:10.209Z,21.28
2022-08-31T12:03:44.482Z,21.06
2022-08-31T12:06:36.233Z,20.80
2022-08-31T12:09:36.851Z,20.70
2022-08-31T12:12:19.636Z,21.15
2022-08-31T12:14:55.110Z,21.51
2022-08-31T12:17:37.022Z,21.92
2022-08-31T12:20:16.165Z,22.35
2022-08-31T12:23:18.703Z,22.62
2022-08-31T12:26:21.534Z,22.63
2022-08-31T12:29:19.941Z,22.56
2022-08-31T12:32:11.467Z,22.13
2022-08-31T12:35:18.606Z,21.86
2022-08-31T12:37:45.788Z,22.06
2022-08-31T12:40:19.453Z,22.16
2022-08-31T12:42:52.930Z,22.56
2022-08-31T12:45:20.870Z,22.79
2022-08-31T12:48:06.622Z,22.99
2022-08-31T12:50:41.120Z,23.20
2022-08-31T12:53:47.267Z,23.23
2022-08-31T12:56:26.298Z,22.83
2022-08-31T12:58:52.905Z,22.65
2022-08-31T13:01:22.600Z,22.31
2022-08-31T13:03:54.234Z,21.73
2022-08-31T13:06:25.705Z,21.69
2022-08-31T13:08:55.712Z,21.32
2022-08-31T13:11:42.688Z,21.27
2022-08-31T13:14:20.762Z,21.14
2022-08-31T13:17:05.050Z,21.14
2022-08-31T13:19:33.632Z,21.31
2022-08-31T13:22:09.302Z,21.48
2022-08-31T13:24:42.394Z,21.88
2022-08-31T13:27:21.814Z,22.45
2022-08-31T13:29:49.865Z,22.61
2022-08-31T13:32:19.523Z,22.58
2022-08-31T13:34:48.068Z,22.42
2022-08-31T13:37:23.340Z,22.30
2022-08-31T13:39:50.248Z,22.06
2022-08-31T13:42:32.894Z,21.87
2022-08-31T13:45:09.502Z,21.66
2022-08-31T13:47:45.152Z,21.49
2022-08-31T13:50:27.049Z,21.44
2022-08-31T13:53:23.025Z,21.43
2022-08-31T13:55:44.527Z,21.73
2022-08-31T13:58:29.644Z,22.11
2022-08-31T14:01:23.048Z,22.26
2022-08-31T14:03:59.523Z,22.58
2022-08-31T14:06:30.705Z,22.46
2022-08-31T14:09:07.738Z,22.31
2022-08-31T14:11:35.586Z,22.07
2022-08-31T14:14:09.934Z,21.61
2022-08-31T14:16:40.202Z,21.42
2022-08-31T14:19:11.059Z,21.27
2022-08-31T14:21:43.491Z,21.14
2022-08-31T14:24:12.372Z,20.94
2022-08-31T14:26:41.778Z,20.89
2022-08-31T14:29:12.405Z,20.85
2022-08-31T14:31:52.378Z,20.75
2022-08-31T14:34:30.450Z,20.72
2022-08-31T14:37:19.889Z,20.68
2022-08-31T14:39:51.354Z,20.66
2022-08-31T14:42:29.879Z,20.75
2022-08-31T14:45:18.964Z,20.66
2022-08-31T14:47:48.003Z,20.66
2022-08-31T14:50:18.777Z,20.46
2022-08-31T14:52:52.665Z,20.51
2022-08-31T14:55:20.003Z,20.53
2022-08-31T14:57:58.007Z,20.43
2022-08-31T15:00:25.442Z,20.49
2022-08-31T15:02:56.670Z,20.35
2022-08-31T15:05:24.930Z,20.50
2022-08-31T15:07:53.252Z,20.56
2022-08-31T15:10:22.101Z,20.64
2022-08-31T15:12:48.854Z,20.56
2022-08-31T15:15:20.894Z,20.59
2022-08-31T15:17:51.744Z,20.58
2022-08-31T15:20:20.151Z,20.51
2022-08-31T15:22:48.007Z,20.45
2022-08-31T15:25:15.748Z,20.33
2022-08-31T15:27:44.486Z,20.51
2022-08-31T15:30:19.739Z,20.42
2022-08-31T15:32:48.016Z,20.29
2022-08-31T15:35:18.861Z,20.16
2022-08-31T15:37:52.114Z,20.25
2022-08-31T15:40:18.984Z,20.22
2022-08-31T15:42:46.170Z,20.26
2022-08-31T15:45:13.054Z,20.11
2022-08-31T15:47:59.437Z,20.09
2022-08-31T15:50:31.743Z,20.14
2022-08-31T15:53:05.187Z,20.04
2022-08-31T15:55:36.264Z,19.95
2022-08-31T15:58:04.244Z,19.95
2022-08-31T16:00:32.756Z,20.02
2022-08-31T16:03:02.175Z,19.90
2022-08-31T16:05:35.846Z,19.88
2022-08-31T16:08:03.059Z,19.85
2022-08-31T16:10:30.927Z,19.91
2022-08-31T16:12:57.893Z,19.96
2022-08-31T16:15:32.699Z,19.83
2022-08-31T16:18:02.919Z,19.86
2022-08-31T16:20:29.625Z,19.71
2022-08-31T16:22:58.724Z,19.88
2022-08-31T16:25:34.770Z,19.88
2022-08-31T16:28:15.148Z,19.79
2022-08-31T16:30:43.919Z,19.72
2022-08-31T16:33:12.266Z,19.69
2022-08-31T16:35:39.425Z,19.70
2022-08-31T16:38:07.236Z,19.55
2022-08-31T16:40:35.500Z,19.54
2022-08-31T16:43:05.032Z,19.54
2022-08-31T16:45:31.748Z,19.62
2022-08-31T16:48:19.690Z,19.44
2022-08-31T16:50:47.641Z,19.48
2022-08-31T16:53:18.443Z,19.34
2022-08-31T16:55:47.498Z,19.21
2022-08-31T16:58:24.895Z,19.25
2022-08-31T17:01:12.735Z,19.14
2022-08-31T17:03:52.399Z,18.98
2022-08-31T17:06:19.686Z,18.90
2022-08-31T17:08:47.079Z,19.03
2022-08-31T17:11:17.707Z,18.96
2022-08-31T17:13:47.591Z,18.90
2022-08-31T17:16:21.161Z,18.79
2022-08-31T17:18:52.536Z,18.66
2022-08-31T17:21:25.050Z,18.70
2022-08-31T17:23:52.449Z,18.59
2022-08-31T17:26:19.410Z,18.62
2022-08-31T17:28:58.741Z,18.52
2022-08-31T17:31:26.272Z,18.47
2022-08-31T17:33:55.324Z,18.44
2022-08-31T17:36:23.379Z,18.18
2022-08-31T17:38:50.061Z,18.14
2022-08-31T17:41:16.967Z,18.18
2022-08-31T17:43:43.859Z,18.06
2022-08-31T17:46:12.725Z,17.92
2022-08-31T17:48:41.455Z,17.93
2022-08-31T17:51:09.980Z,17.81
2022-08-31T17:53:37.439Z,17.77
2022-08-31T17:56:06.857Z,17.84
2022-08-31T17:58:34.123Z,17.80
2022-08-31T18:01:03.319Z,17.77
2022-08-31T18:03:30.156Z,17.65
2022-08-31T18:05:56.958Z,17.51
2022-08-31T18:08:24.467Z,17.48
2022-08-31T18:10:52.926Z,17.57
2022-08-31T18:13:21.464Z,17.42
2022-08-31T18:15:51.369Z,17.37
2022-08-31T18:18:18.428Z,17.48
2022-08-31T18:20:45.312Z,17.36
2022-08-31T18:23:12.729Z,17.20
2022-08-31T18:25:43.080Z,17.15
2022-08-31T18:28:09.801Z,17.18
2022-08-31T18:30:41.220Z,16.99
2022-08-31T18:33:09.313Z,17.10
2022-08-31T18:35:51.196Z,16.99
2022-08-31T18:38:18.238Z,16.74
2022-08-31T18:41:03.522Z,16.77
2022-08-31T18:43:48.888Z,16.77
2022-08-31T18:46:15.712Z,16.50
2022-08-31T18:48:54.157Z,16.52
2022-08-31T18:51:23.334Z,16.47
2022-08-31T18:53:51.707Z,16.32
2022-08-31T18:56:18.475Z,16.25
2022-08-31T18:58:45.143Z,16.17
2022-08-31T19:01:14.161Z,16.00
2022-08-31T19:03:41.621Z,16.07
2022-08-31T19:06:15.633Z,15.90
2022-08-31T19:08:42.311Z,15.85
2022-08-31T19:11:09.033Z,15.65
2022-08-31T19:13:35.728Z,15.66
2022-08-31T19:16:14.668Z,15.70
2022-08-31T19:18:41.671Z,15.65
2022-08-31T19:21:20.714Z,15.57
2022-08-31T19:23:47.931Z,15.48
2022-08-31T19:26:24.645Z,15.38
2022-08-31T19:28:51.407Z,15.39
2022-08-31T19:31:19.519Z,15.40
2022-08-31T19:33:56.312Z,15.27
2022-08-31T19:36:24.427Z,15.07
2022-08-31T19:38:51.765Z,15.00
2022-08-31T19:41:23.337Z,14.97
2022-08-31T19:43:56.133Z,14.90
2022-08-31T19:46:32.939Z,14.87
2022-08-31T19:49:00.357Z,14.77
2022-08-31T19:51:29.186Z,14.67
2022-08-31T19:53:56.287Z,14.59
2022-08-31T19:56:25.788Z,14.62
2022-08-31T19:58:53.603Z,14.44
2022-08-31T20:01:25.239Z,14.48
2022-08-31T20:03:54.284Z,14.39
2022-08-31T20:06:22.568Z,14.34
2022-08-31T20:08:50.320Z,14.27
2022-08-31T20:11:22.063Z,14.16
2022-08-31T20:13:49.770Z,14.17
2022-08-31T20:16:17.189Z,14.11
2022-08-31T20:18:50.917Z,14.04
2022-08-31T20:21:23.459Z,14.01
2022-08-31T20:23:53.167Z,13.94
2022-08-31T20:26:26.112Z,13.83
2022-08-31T20:29:04.142Z,13.80
2022-08-31T20:31:32.823Z,13.67
2022-08-31T20:34:00.006Z,13.71
2022-08-31T20:36:32.538Z,13.55
2022-08-31T20:39:07.821Z,13.63
2022-08-31T20:41:40.165Z,13.59
2022-08-31T20:44:12.675Z,13.57
2022-08-31T20:47:02.615Z,13.52
2022-08-31T20:49:32.378Z,13.46
2022-08-31T20:52:01.835Z,13.46
2022-08-31T20:54:32.735Z,13.45
2022-08-31T20:57:02.354Z,13.40
2022-08-31T20:59:29.368Z,13.29
2022-08-31T21:02:00.441Z,13.17
2022-08-31T21:04:29.105Z,13.05
2022-08-31T21:06:57.821Z,12.98
2022-08-31T21:09:25.203Z,12.97
2022-08-31T21:11:52.326Z,12.95
2022-08-31T21:14:20.245Z,12.99
2022-08-31T21:16:47.945Z,12.87
2022-08-31T21:19:18.119Z,12.80
2022-08-31T21:21:46.292Z,12.75
2022-08-31T21:24:16.128Z,12.73
2022-08-31T21:26:43.993Z,12.64
2022-08-31T21:29:14.625Z,12.59
2022-08-31T21:31:48.978Z,12.55
2022-08-31T21:34:22.748Z,12.48
2022-08-31T21:36:49.801Z,12.48
2022-08-31T21:39:19.082Z,12.49
2022-08-31T21:41:48.475Z,12.46
2022-08-31T21:44:17.139Z,12.43
2022-08-31T21:46:49.778Z,12.44
2022-08-31T21:49:17.974Z,12.32
2022-08-31T21:51:50.747Z,12.20
2022-08-31T21:54:21.970Z,12.06
2022-08-31T21:56:52.583Z,12.03
2022-08-31T21:59:22.100Z,12.02
2022-08-31T22:01:51.007Z,11.90
2022-08-31T22:04:20.578Z,11.88
2022-08-31T22:06:49.542Z,11.83
2022-08-31T22:09:19.294Z,11.72
2022-08-31T22:11:50.644Z,11.71
2022-08-31T22:14:20.092Z,11.76
2022-08-31T22:16:48.024Z,11.71
2022-08-31T22:19:20.930Z,11.60
2022-08-31T22:21:51.106Z,11.57
2022-08-31T22:24:27.660Z,11.48
2022-08-31T22:26:55.740Z,11.46
2022-08-31T22:29:24.663Z,11.41
2022-08-31T22:31:54.279Z,11.45
2022-08-31T22:34:21.639Z,11.39
2022-08-31T22:36:50.770Z,11.28
2022-08-31T22:39:21.213Z,11.30
2022-08-31T22:41:52.045Z,11.23
2022-08-31T22:44:23.130Z,11.20
2022-08-31T22:46:49.850Z,11.17
2022-08-31T22:49:19.641Z,11.08
2022-08-31T22:51:49.094Z,11.07
2022-08-31T22:54:17.734Z,11.03
2022-08-31T22:56:45.167Z,10.95
2022-08-31T22:59:14.703Z,10.96
2022-08-31T23:01:50.540Z,10.92
2022-08-31T23:04:21.962Z,10.86
2022-08-31T23:06:51.160Z,10.82
2022-08-31T23:09:21.391Z,10.82
2022-08-31T23:11:53.281Z,10.83
2022-08-31T23:14:23.796Z,10.83
2022-08-31T23:16:59.055Z,10.78
2022-08-31T23:19:33.379Z,10.75
2022-08-31T23:22:01.563Z,10.80
2022-08-31T23:24:43.874Z,10.68
2022-08-31T23:27:11.754Z,10.63
2022-08-31T23:29:47.878Z,10.64
2022-08-31T23:32:22.274Z,10.59
2022-08-31T23:34:50.618Z,10.53
2022-08-31T23:37:18.509Z,10.50
2022-08-31T23:39:46.325Z,10.48
2022-08-31T23:42:14.920Z,10.45
2022-08-31T23:44:46.486Z,10.38
2022-08-31T23:47:20.214Z,10.30
2022-08-31T23:49:51.321Z,10.26
2022-08-31T23:52:26.469Z,10.22
2022-08-31T23:54:57.697Z,10.25
2022-08-31T23:57:32.221Z,10.22
